PWSweather.com
Personal Weather Stations
Station Observations
IPUMONTE2
MontelabbateIT 61025

MontelabbateIT 61025

Lat: 43.848, Lon: 12.7895

Elevation: 196

Station Type: LaCrosse WS3600

http://www.montelabbatemet.altervista.org/

Latest ConditionsUpdated 2:38:10 PM GMT+01:01 Sunday, Jun 16, 2019
Currently Today's Max Today's Min Today's Average
Temperature 84.3°F29.1°C 84.9°F29.4°C 67.8°F19.9°C 76.6°F24.8°C
Dew Point 61.9°F16.6°C 64.5°F18.1°C 56.1°F13.4°C 59.9°F15.5°C
Winds 4.6 mph NNE7.4 kmh NNE 7.6 mph -12.2 kmh - - 3.6 mph 5.8 kmh
Wind Gusts 6.0 mph9.7 kmh 9.3 mph15.0 kmh - -
Humidity 47% 71% 40% 57%
Pressure 29.76 in1007.8 mb 29.78 in1008.5 mb 29.75 in1007.5 mb -
Hour Temp Dew Point Humidity Winds Wind Gusts Pressure Precip Precip Rate Daily Precip Total
02:38 PM 84.3°F29.1°C 61.9°F16.6°C 47% 4.6 mph NNE7.4 kmh NNE 6.0 mph9.7 kmh 29.76 in1007.8 mb 0.00 in0.0 mm 0.00 in0.0 mm 0.00 in0.0 mm
02:33 PM 84.3°F29.1°C 62.5°F16.9°C 48% 4.1 mph NNW6.6 kmh NNW 8.9 mph14.3 kmh 29.76 in1007.8 mb 0.00 in0.0 mm 0.00 in0.0 mm 0.00 in0.0 mm
02:27 PM 83.4°F28.6°C 61.7°F16.5°C 48% 5.4 mph N8.7 kmh N 8.9 mph14.3 kmh 29.76 in1007.8 mb 0.00 in0.0 mm 0.00 in0.0 mm 0.00 in0.0 mm
02:22 PM 84.0°F28.9°C 61.6°F16.4°C 47% 3.9 mph NNE6.3 kmh NNE 6.7 mph10.8 kmh 29.76 in1007.8 mb 0.00 in0.0 mm 0.00 in0.0 mm 0.00 in0.0 mm
02:17 PM 84.2°F29.0°C 62.4°F16.9°C 48% 3.2 mph NE5.1 kmh NE 6.7 mph10.8 kmh 29.75 in1007.5 mb 0.00 in0.0 mm 0.00 in0.0 mm 0.00 in0.0 mm
02:12 PM 84.3°F29.1°C 63.2°F17.3°C 49% 2.0 mph 3.2 kmh 4.6 mph7.4 kmh 29.76 in1007.8 mb 0.00 in0.0 mm 0.00 in0.0 mm 0.00 in0.0 mm
02:08 PM 84.0°F28.9°C 62.8°F17.1°C 49% 3.1 mph NE5.0 kmh NE 4.9 mph7.9 kmh 29.76 in1007.8 mb 0.00 in0.0 mm 0.00 in0.0 mm 0.00 in0.0 mm
02:03 PM 84.2°F29.0°C 63.0°F17.2°C 49% 4.6 mph N7.4 kmh N 6.4 mph10.3 kmh 29.76 in1007.8 mb 0.00 in0.0 mm 0.00 in0.0 mm 0.00 in0.0 mm
01:57 PM 84.0°F28.9°C 63.5°F17.5°C 50% 3.5 mph NNE5.6 kmh NNE 6.4 mph10.3 kmh 29.76 in1007.8 mb 0.00 in0.0 mm 0.00 in0.0 mm 0.00 in0.0 mm
01:52 PM 83.4°F28.6°C 63.4°F17.4°C 51% 3.6 mph NE5.8 kmh NE 5.5 mph8.9 kmh 29.76 in1007.8 mb 0.00 in0.0 mm 0.00 in0.0 mm 0.00 in0.0 mm
01:47 PM 83.4°F28.6°C 62.3°F16.8°C 49% 5.4 mph NNE8.7 kmh NNE 5.5 mph8.9 kmh 29.76 in1007.8 mb 0.00 in0.0 mm 0.00 in0.0 mm 0.00 in0.0 mm
01:42 PM 84.0°F28.9°C 62.8°F17.1°C 49% 4.0 mph N6.4 kmh N 4.2 mph6.8 kmh 29.76 in1007.8 mb 0.00 in0.0 mm 0.00 in0.0 mm 0.00 in0.0 mm
01:37 PM 84.0°F28.9°C 63.5°F17.5°C 50% 3.4 mph N5.5 kmh N 5.8 mph9.3 kmh 29.77 in1008.1 mb 0.00 in0.0 mm 0.00 in0.0 mm 0.00 in0.0 mm
01:32 PM 84.9°F29.4°C 63.7°F17.6°C 49% 3.0 mph ENE4.8 kmh ENE 5.8 mph9.3 kmh 29.76 in1007.8 mb 0.00 in0.0 mm 0.00 in0.0 mm 0.00 in0.0 mm
01:27 PM 84.0°F28.9°C 64.0°F17.8°C 51% 5.4 mph NE8.7 kmh NE 5.8 mph9.3 kmh 29.76 in1007.8 mb 0.00 in0.0 mm 0.00 in0.0 mm 0.00 in0.0 mm
01:22 PM 84.0°F28.9°C 64.5°F18.1°C 52% 1.8 mph NNE2.9 kmh NNE 4.4 mph7.1 kmh 29.76 in1007.8 mb 0.00 in0.0 mm 0.00 in0.0 mm 0.00 in0.0 mm
01:17 PM 83.4°F28.6°C 62.9°F17.2°C 50% 4.4 mph 7.1 kmh 5.3 mph8.5 kmh 29.76 in1007.8 mb 0.00 in0.0 mm 0.00 in0.0 mm 0.00 in0.0 mm
01:12 PM 83.1°F28.4°C 63.1°F17.3°C 51% 3.6 mph NE5.8 kmh NE 5.3 mph8.5 kmh 29.77 in1008.1 mb 0.00 in0.0 mm 0.00 in0.0 mm 0.00 in0.0 mm
01:07 PM 83.3°F28.5°C 63.8°F17.7°C 52% 5.3 mph NE8.5 kmh NE 5.3 mph8.5 kmh 29.77 in1008.1 mb 0.00 in0.0 mm 0.00 in0.0 mm 0.00 in0.0 mm
01:02 PM 82.7°F28.2°C 62.7°F17.1°C 51% Calm Calm 4.0 mph6.4 kmh 29.77 in1008.1 mb 0.00 in0.0 mm 0.00 in0.0 mm 0.00 in0.0 mm
12:57 PM 82.5°F28.1°C 63.1°F17.3°C 52% 3.9 mph NE6.3 kmh NE 4.0 mph6.4 kmh 29.77 in1008.1 mb 0.00 in0.0 mm 0.00 in0.0 mm 0.00 in0.0 mm
12:52 PM 82.5°F28.1°C 63.1°F17.3°C 52% 3.9 mph N6.3 kmh N 5.8 mph9.3 kmh 29.77 in1008.1 mb 0.00 in0.0 mm 0.00 in0.0 mm 0.00 in0.0 mm
12:47 PM 82.5°F28.1°C 63.1°F17.3°C 52% 3.8 mph NNE6.1 kmh NNE 8.9 mph14.3 kmh 29.77 in1008.1 mb 0.00 in0.0 mm 0.00 in0.0 mm 0.00 in0.0 mm
12:42 PM 82.5°F28.1°C 62.5°F16.9°C 51% 3.6 mph NE5.8 kmh NE 8.9 mph14.3 kmh 29.77 in1008.1 mb 0.00 in0.0 mm 0.00 in0.0 mm 0.00 in0.0 mm
12:37 PM 82.2°F27.9°C 63.2°F17.3°C 52% 3.6 mph NNW5.8 kmh NNW 7.8 mph12.6 kmh 29.77 in1008.1 mb 0.00 in0.0 mm 0.00 in0.0 mm 0.00 in0.0 mm
12:32 PM 82.2°F27.9°C 62.7°F17.1°C 53% 4.0 mph NE6.4 kmh NE 7.8 mph12.6 kmh 29.77 in1008.1 mb 0.00 in0.0 mm 0.00 in0.0 mm 0.00 in0.0 mm
12:27 PM 82.2°F27.9°C 63.2°F17.3°C 53% 3.5 mph NNE5.6 kmh NNE 8.0 mph12.9 kmh 29.77 in1008.1 mb 0.00 in0.0 mm 0.00 in0.0 mm 0.00 in0.0 mm
12:22 PM 82.2°F27.9°C 63.2°F17.3°C 53% 7.6 mph NNE12.2 kmh NNE 9.3 mph15.0 kmh 29.77 in1008.1 mb 0.00 in0.0 mm 0.00 in0.0 mm 0.00 in0.0 mm
12:17 PM 83.1°F28.4°C 64.1°F17.8°C 53% 5.5 mph NE8.9 kmh NE 9.3 mph15.0 kmh 29.77 in1008.1 mb 0.00 in0.0 mm 0.00 in0.0 mm 0.00 in0.0 mm
12:12 PM 82.9°F28.3°C 62.9°F17.2°C 51% 5.0 mph NNE8.0 kmh NNE 8.0 mph12.9 kmh 29.77 in1008.1 mb 0.00 in0.0 mm 0.00 in0.0 mm 0.00 in0.0 mm
12:07 PM 83.1°F28.4°C 63.6°F17.6°C 52% 3.3 mph NE5.3 kmh NE 8.0 mph12.9 kmh 29.78 in1008.5 mb 0.00 in0.0 mm 0.00 in0.0 mm 0.00 in0.0 mm
12:06 PM 82.7°F28.2°C 63.8°F17.7°C 53% 3.3 mph NE5.3 kmh NE 8.0 mph12.9 kmh 29.77 in1008.1 mb 0.00 in0.0 mm 0.00 in0.0 mm 0.00 in0.0 mm
12:01 PM 82.9°F28.3°C 63.4°F17.4°C 52% 2.4 mph NNE3.9 kmh NNE 6.4 mph10.3 kmh 29.78 in1008.5 mb 0.00 in0.0 mm 0.00 in0.0 mm 0.00 in0.0 mm
11:56 AM 83.4°F28.6°C 64.0°F17.8°C 52% 3.3 mph N5.3 kmh N 6.4 mph10.3 kmh 29.78 in1008.5 mb 0.00 in0.0 mm 0.00 in0.0 mm 0.00 in0.0 mm
11:51 AM 84.3°F29.1°C 63.2°F17.3°C 49% 3.6 mph 5.8 kmh 3.8 mph6.1 kmh 29.78 in1008.5 mb 0.00 in0.0 mm 0.00 in0.0 mm 0.00 in0.0 mm
11:46 AM 84.3°F29.1°C 63.2°F17.3°C 49% 2.5 mph NNE4.0 kmh NNE 4.2 mph6.8 kmh 29.78 in1008.5 mb 0.00 in0.0 mm 0.00 in0.0 mm 0.00 in0.0 mm
11:41 AM 83.3°F28.5°C 63.8°F17.7°C 51% 2.5 mph NNE4.0 kmh NNE 7.8 mph12.6 kmh 29.78 in1008.5 mb 0.00 in0.0 mm 0.00 in0.0 mm 0.00 in0.0 mm
11:36 AM 83.1°F28.4°C 63.6°F17.6°C 52% 5.7 mph NNE9.2 kmh NNE 7.8 mph12.6 kmh 29.78 in1008.5 mb 0.00 in0.0 mm 0.00 in0.0 mm 0.00 in0.0 mm
11:31 AM 82.9°F28.3°C 63.4°F17.4°C 52% 3.6 mph 5.8 kmh 8.7 mph14.0 kmh 29.78 in1008.5 mb 0.00 in0.0 mm 0.00 in0.0 mm 0.00 in0.0 mm
11:26 AM 82.5°F28.1°C 62.5°F16.9°C 51% 3.5 mph NE5.6 kmh NE 8.7 mph14.0 kmh 29.78 in1008.5 mb 0.00 in0.0 mm 0.00 in0.0 mm 0.00 in0.0 mm
11:21 AM 82.5°F28.1°C 62.5°F16.9°C 51% 6.5 mph NE10.5 kmh NE 8.7 mph14.0 kmh 29.78 in1008.5 mb 0.00 in0.0 mm 0.00 in0.0 mm 0.00 in0.0 mm
11:16 AM 82.9°F28.3°C 62.9°F17.2°C 51% 3.8 mph NE6.1 kmh NE 7.1 mph11.4 kmh 29.78 in1008.5 mb 0.00 in0.0 mm 0.00 in0.0 mm 0.00 in0.0 mm
11:11 AM 82.9°F28.3°C 62.9°F17.2°C 51% 5.1 mph NNE8.2 kmh NNE 7.1 mph11.4 kmh 29.78 in1008.5 mb 0.00 in0.0 mm 0.00 in0.0 mm 0.00 in0.0 mm
11:06 AM 83.1°F28.4°C 63.1°F17.3°C 51% 4.0 mph NNE6.4 kmh NNE 4.2 mph6.8 kmh 29.78 in1008.5 mb 0.00 in0.0 mm 0.00 in0.0 mm 0.00 in0.0 mm
11:01 AM 83.3°F28.5°C 62.7°F17.1°C 50% 3.6 mph N5.8 kmh N 4.6 mph7.4 kmh 29.78 in1008.5 mb 0.00 in0.0 mm 0.00 in0.0 mm 0.00 in0.0 mm
10:56 AM 83.1°F28.4°C 61.9°F16.6°C 49% 4.6 mph NE7.4 kmh NE 4.6 mph7.4 kmh 29.78 in1008.5 mb 0.00 in0.0 mm 0.00 in0.0 mm 0.00 in0.0 mm
10:51 AM 83.1°F28.4°C 60.7°F15.9°C 47% 3.5 mph ENE5.6 kmh ENE 4.0 mph6.4 kmh 29.78 in1008.5 mb 0.00 in0.0 mm 0.00 in0.0 mm 0.00 in0.0 mm
10:46 AM 82.9°F28.3°C 61.1°F16.2°C 48% 2.2 mph N3.5 kmh N 8.2 mph13.2 kmh 29.78 in1008.5 mb 0.00 in0.0 mm 0.00 in0.0 mm 0.00 in0.0 mm
10:41 AM 82.9°F28.3°C 61.1°F16.2°C 48% 4.6 mph NE7.4 kmh NE 9.1 mph14.6 kmh 29.78 in1008.5 mb 0.00 in0.0 mm 0.00 in0.0 mm 0.00 in0.0 mm
10:36 AM 83.8°F28.8°C 61.4°F16.3°C 47% 4.8 mph NNE7.7 kmh NNE 9.1 mph14.6 kmh 29.78 in1008.5 mb 0.00 in0.0 mm 0.00 in0.0 mm 0.00 in0.0 mm
10:31 AM 84.0°F28.9°C 58.4°F14.7°C 44% 1.7 mph NNW2.7 kmh NNW 2.2 mph3.5 kmh 29.78 in1008.5 mb 0.00 in0.0 mm 0.00 in0.0 mm 0.00 in0.0 mm
10:26 AM 84.0°F28.9°C 58.4°F14.7°C 42% 1.3 mph SW2.1 kmh SW 1.3 mph2.1 kmh 29.78 in1008.5 mb 0.00 in0.0 mm 0.00 in0.0 mm 0.00 in0.0 mm
10:21 AM 83.8°F28.8°C 57.6°F14.2°C 41% 0.6 mph SSW1.0 kmh SSW 4.2 mph6.8 kmh 29.78 in1008.5 mb 0.00 in0.0 mm 0.00 in0.0 mm 0.00 in0.0 mm
10:16 AM 83.6°F28.7°C 57.5°F14.2°C 41% 4.2 mph NNW6.8 kmh NNW 4.2 mph6.8 kmh 29.77 in1008.1 mb 0.00 in0.0 mm 0.00 in0.0 mm 0.00 in0.0 mm
10:11 AM 83.6°F28.7°C 56.1°F13.4°C 40% 3.1 mph WNW5.0 kmh WNW 3.3 mph5.3 kmh 29.78 in1008.5 mb 0.00 in0.0 mm 0.00 in0.0 mm 0.00 in0.0 mm
10:06 AM 83.8°F28.8°C 57.0°F13.9°C 40% 2.4 mph WNW3.9 kmh WNW 2.6 mph4.2 kmh 29.78 in1008.5 mb 0.00 in0.0 mm 0.00 in0.0 mm 0.00 in0.0 mm
10:01 AM 83.1°F28.4°C 57.0°F13.9°C 41% Calm Calm 3.5 mph5.6 kmh 29.78 in1008.5 mb 0.00 in0.0 mm 0.00 in0.0 mm 0.00 in0.0 mm
09:56 AM 82.5°F28.1°C 58.3°F14.6°C 42% 3.5 mph SSW5.6 kmh SSW 4.2 mph6.8 kmh 29.78 in1008.5 mb 0.00 in0.0 mm 0.00 in0.0 mm 0.00 in0.0 mm
09:51 AM 82.5°F28.1°C 58.3°F14.6°C 44% 2.9 mph S4.7 kmh S 4.2 mph6.8 kmh 29.78 in1008.5 mb 0.00 in0.0 mm 0.00 in0.0 mm 0.00 in0.0 mm
09:46 AM 82.0°F27.8°C 57.8°F14.3°C 44% 3.8 mph SW6.1 kmh SW 3.8 mph6.1 kmh 29.78 in1008.5 mb 0.00 in0.0 mm 0.00 in0.0 mm 0.00 in0.0 mm
09:41 AM 82.9°F28.3°C 58.1°F14.5°C 44% 3.1 mph SW5.0 kmh SW 3.3 mph5.3 kmh 29.78 in1008.5 mb 0.00 in0.0 mm 0.00 in0.0 mm 0.00 in0.0 mm
09:36 AM 82.5°F28.1°C 58.9°F14.9°C 45% 0.8 mph SW1.3 kmh SW 1.7 mph2.7 kmh 29.78 in1008.5 mb 0.00 in0.0 mm 0.00 in0.0 mm 0.00 in0.0 mm
09:31 AM 81.5°F27.5°C 58.0°F14.4°C 45% 1.3 mph W2.1 kmh W 1.7 mph2.7 kmh 29.77 in1008.1 mb 0.00 in0.0 mm 0.00 in0.0 mm 0.00 in0.0 mm
09:26 AM 82.2°F27.9°C 59.2°F15.1°C 46% 0.4 mph SW0.6 kmh SW 3.3 mph5.3 kmh 29.78 in1008.5 mb 0.00 in0.0 mm 0.00 in0.0 mm 0.00 in0.0 mm
09:21 AM 81.5°F27.5°C 58.6°F14.8°C 46% 2.1 mph W3.4 kmh W 3.3 mph5.3 kmh 29.78 in1008.5 mb 0.00 in0.0 mm 0.00 in0.0 mm 0.00 in0.0 mm
09:16 AM 81.3°F27.4°C 58.4°F14.7°C 46% 3.3 mph SW5.3 kmh SW 5.8 mph9.3 kmh 29.78 in1008.5 mb 0.00 in0.0 mm 0.00 in0.0 mm 0.00 in0.0 mm
09:11 AM 80.2°F26.8°C 59.3°F15.2°C 49% 2.2 mph W3.5 kmh W 6.9 mph11.1 kmh 29.78 in1008.5 mb 0.00 in0.0 mm 0.00 in0.0 mm 0.00 in0.0 mm
09:06 AM 80.2°F26.8°C 58.7°F14.8°C 48% 5.8 mph SW9.3 kmh SW 6.9 mph11.1 kmh 29.78 in1008.5 mb 0.00 in0.0 mm 0.00 in0.0 mm 0.00 in0.0 mm
09:01 AM 80.0°F26.7°C 60.8°F16.0°C 52% Calm Calm 4.4 mph7.1 kmh 29.78 in1008.5 mb 0.00 in0.0 mm 0.00 in0.0 mm 0.00 in0.0 mm
08:56 AM 79.5°F26.4°C 60.8°F16.0°C 53% 2.4 mph SSW3.9 kmh SSW 4.4 mph7.1 kmh 29.78 in1008.5 mb 0.00 in0.0 mm 0.00 in0.0 mm 0.00 in0.0 mm
08:51 AM 79.5°F26.4°C 61.3°F16.3°C 54% 0.6 mph S1.0 kmh S 2.2 mph3.5 kmh 29.78 in1008.5 mb 0.00 in0.0 mm 0.00 in0.0 mm 0.00 in0.0 mm
08:46 AM 78.8°F26.0°C 61.2°F16.2°C 54% 0.8 mph SW1.3 kmh SW 2.9 mph4.7 kmh 29.78 in1008.5 mb 0.00 in0.0 mm 0.00 in0.0 mm 0.00 in0.0 mm
08:41 AM 78.8°F26.0°C 60.7°F15.9°C 54% 2.9 mph S4.7 kmh S 2.9 mph4.7 kmh 29.78 in1008.5 mb 0.00 in0.0 mm 0.00 in0.0 mm 0.00 in0.0 mm
08:36 AM 78.4°F25.8°C 61.4°F16.3°C 55% Calm Calm 1.7 mph2.7 kmh 29.78 in1008.5 mb 0.00 in0.0 mm 0.00 in0.0 mm 0.00 in0.0 mm
08:31 AM 78.0°F25.6°C 61.0°F16.1°C 56% 1.1 mph SW1.8 kmh SW 6.0 mph9.7 kmh 29.78 in1008.5 mb 0.00 in0.0 mm 0.00 in0.0 mm 0.00 in0.0 mm
08:26 AM 77.5°F25.3°C 60.5°F15.8°C 57% 2.4 mph SW3.9 kmh SW 6.0 mph9.7 kmh 29.78 in1008.5 mb 0.00 in0.0 mm 0.00 in0.0 mm 0.00 in0.0 mm
08:21 AM 77.3°F25.2°C 60.3°F15.7°C 56% 0.6 mph WSW1.0 kmh WSW 4.6 mph7.4 kmh 29.78 in1008.5 mb 0.00 in0.0 mm 0.00 in0.0 mm 0.00 in0.0 mm
08:16 AM 77.1°F25.1°C 61.2°F16.2°C 58% 2.7 mph WSW4.3 kmh WSW 6.0 mph9.7 kmh 29.78 in1008.5 mb 0.00 in0.0 mm 0.00 in0.0 mm 0.00 in0.0 mm
08:11 AM 76.8°F24.9°C 60.3°F15.7°C 57% 5.7 mph SW9.2 kmh SW 6.0 mph9.7 kmh 29.78 in1008.5 mb 0.00 in0.0 mm 0.00 in0.0 mm 0.00 in0.0 mm
08:06 AM 76.6°F24.8°C 60.7°F15.9°C 58% 2.9 mph W4.7 kmh W 5.8 mph9.3 kmh 29.78 in1008.5 mb 0.00 in0.0 mm 0.00 in0.0 mm 0.00 in0.0 mm
08:01 AM 75.9°F24.4°C 60.0°F15.6°C 59% 3.4 mph WSW5.5 kmh WSW 4.0 mph6.4 kmh 29.78 in1008.5 mb 0.00 in0.0 mm 0.00 in0.0 mm 0.00 in0.0 mm
07:56 AM 75.7°F24.3°C 60.4°F15.8°C 59% 3.4 mph SW5.5 kmh SW 6.2 mph10.0 kmh 29.78 in1008.5 mb 0.00 in0.0 mm 0.00 in0.0 mm 0.00 in0.0 mm
07:51 AM 75.5°F24.2°C 59.7°F15.4°C 58% 5.3 mph SSW8.5 kmh SSW 7.6 mph12.2 kmh 29.78 in1008.5 mb 0.00 in0.0 mm 0.00 in0.0 mm 0.00 in0.0 mm
07:46 AM 75.0°F23.9°C 59.7°F15.4°C 59% 5.4 mph SW8.7 kmh SW 7.6 mph12.2 kmh 29.77 in1008.1 mb 0.00 in0.0 mm 0.00 in0.0 mm 0.00 in0.0 mm
07:41 AM 74.8°F23.8°C 59.5°F15.3°C 59% 3.1 mph S5.0 kmh S 4.2 mph6.8 kmh 29.77 in1008.1 mb 0.00 in0.0 mm 0.00 in0.0 mm 0.00 in0.0 mm
07:36 AM 74.6°F23.7°C 59.3°F15.2°C 59% 3.5 mph SSW5.6 kmh SSW 5.3 mph8.5 kmh 29.78 in1008.5 mb 0.00 in0.0 mm 0.00 in0.0 mm 0.00 in0.0 mm
07:31 AM 74.1°F23.4°C 59.3°F15.2°C 60% 2.6 mph SSW4.2 kmh SSW 5.3 mph8.5 kmh 29.78 in1008.5 mb 0.00 in0.0 mm 0.00 in0.0 mm 0.00 in0.0 mm
07:26 AM 73.9°F23.3°C 59.6°F15.3°C 61% 3.8 mph WSW6.1 kmh WSW 8.0 mph12.9 kmh 29.77 in1008.1 mb 0.00 in0.0 mm 0.00 in0.0 mm 0.00 in0.0 mm
07:21 AM 73.7°F23.2°C 59.4°F15.2°C 61% 5.9 mph SSW9.5 kmh SSW 8.5 mph13.7 kmh 29.78 in1008.5 mb 0.00 in0.0 mm 0.00 in0.0 mm 0.00 in0.0 mm
07:16 AM 73.5°F23.1°C 59.2°F15.1°C 61% 5.9 mph SW9.5 kmh SW 8.5 mph13.7 kmh 29.78 in1008.5 mb 0.00 in0.0 mm 0.00 in0.0 mm 0.00 in0.0 mm
07:11 AM 73.5°F23.1°C 59.7°F15.4°C 62% 4.0 mph SW6.4 kmh SW 8.2 mph13.2 kmh 29.78 in1008.5 mb 0.00 in0.0 mm 0.00 in0.0 mm 0.00 in0.0 mm
07:06 AM 73.2°F22.9°C 59.3°F15.2°C 62% 6.4 mph SW10.3 kmh SW 8.2 mph13.2 kmh 29.77 in1008.1 mb 0.00 in0.0 mm 0.00 in0.0 mm 0.00 in0.0 mm
07:01 AM 73.0°F22.8°C 59.2°F15.1°C 62% 5.9 mph SSW9.5 kmh SSW 7.3 mph11.7 kmh 29.77 in1008.1 mb 0.00 in0.0 mm 0.00 in0.0 mm 0.00 in0.0 mm
06:56 AM 72.6°F22.6°C 59.3°F15.2°C 63% 4.1 mph S6.6 kmh S 7.8 mph12.6 kmh 29.78 in1008.5 mb 0.00 in0.0 mm 0.00 in0.0 mm 0.00 in0.0 mm
06:51 AM 72.5°F22.5°C 59.5°F15.3°C 64% 5.5 mph SSW8.9 kmh SSW 8.0 mph12.9 kmh 29.77 in1008.1 mb 0.00 in0.0 mm 0.00 in0.0 mm 0.00 in0.0 mm
06:46 AM 72.3°F22.4°C 59.4°F15.2°C 64% 5.5 mph SW8.9 kmh SW 8.0 mph12.9 kmh 29.78 in1008.5 mb 0.00 in0.0 mm 0.00 in0.0 mm 0.00 in0.0 mm
06:41 AM 72.1°F22.3°C 59.6°F15.3°C 65% 4.1 mph SW6.6 kmh SW 6.0 mph9.7 kmh 29.77 in1008.1 mb 0.00 in0.0 mm 0.00 in0.0 mm 0.00 in0.0 mm
06:36 AM 71.2°F21.8°C 59.6°F15.3°C 67% 2.3 mph SW3.7 kmh SW 4.0 mph6.4 kmh 29.77 in1008.1 mb 0.00 in0.0 mm 0.00 in0.0 mm 0.00 in0.0 mm
06:31 AM 70.8°F21.6°C 59.7°F15.4°C 68% 4.0 mph SSW6.4 kmh SSW 4.4 mph7.1 kmh 29.77 in1008.1 mb 0.00 in0.0 mm 0.00 in0.0 mm 0.00 in0.0 mm
06:26 AM 70.5°F21.4°C 59.8°F15.4°C 69% 4.2 mph SSW6.8 kmh SSW 6.2 mph10.0 kmh 29.77 in1008.1 mb 0.00 in0.0 mm 0.00 in0.0 mm 0.00 in0.0 mm
06:21 AM 69.6°F20.9°C 59.3°F15.2°C 70% 3.1 mph SW5.0 kmh SW 6.2 mph10.0 kmh 29.77 in1008.1 mb 0.00 in0.0 mm 0.00 in0.0 mm 0.00 in0.0 mm
06:16 AM 69.4°F20.8°C 59.2°F15.1°C 70% 5.4 mph SW8.7 kmh SW 6.2 mph10.0 kmh 29.77 in1008.1 mb 0.00 in0.0 mm 0.00 in0.0 mm 0.00 in0.0 mm
06:11 AM 69.0°F20.6°C 59.2°F15.1°C 71% 1.3 mph WSW2.1 kmh WSW 1.3 mph2.1 kmh 29.77 in1008.1 mb 0.00 in0.0 mm 0.00 in0.0 mm 0.00 in0.0 mm
06:06 AM 68.7°F20.4°C 58.9°F14.9°C 71% 0.4 mph W0.6 kmh W 4.0 mph6.4 kmh 29.77 in1008.1 mb 0.00 in0.0 mm 0.00 in0.0 mm 0.00 in0.0 mm
06:01 AM 68.5°F20.3°C 58.7°F14.8°C 71% 0.6 mph SW1.0 kmh SW 4.0 mph6.4 kmh 29.76 in1007.8 mb 0.00 in0.0 mm 0.00 in0.0 mm 0.00 in0.0 mm
05:56 AM 68.3°F20.2°C 58.6°F14.8°C 71% 3.8 mph SSW6.1 kmh SSW 4.0 mph6.4 kmh 29.76 in1007.8 mb 0.00 in0.0 mm 0.00 in0.0 mm 0.00 in0.0 mm
05:51 AM 68.5°F20.3°C 58.4°F14.7°C 70% 2.6 mph SW4.2 kmh SW 3.5 mph5.6 kmh 29.76 in1007.8 mb 0.00 in0.0 mm 0.00 in0.0 mm 0.00 in0.0 mm
05:46 AM 68.7°F20.4°C 58.5°F14.7°C 70% 3.0 mph SSW4.8 kmh SSW 3.5 mph5.6 kmh 29.76 in1007.8 mb 0.00 in0.0 mm 0.00 in0.0 mm 0.00 in0.0 mm
05:41 AM 68.3°F20.2°C 58.2°F14.6°C 70% 3.0 mph SW4.8 kmh SW 3.5 mph5.6 kmh 29.76 in1007.8 mb 0.00 in0.0 mm 0.00 in0.0 mm 0.00 in0.0 mm
05:36 AM 68.5°F20.3°C 57.9°F14.4°C 69% 2.7 mph SW4.3 kmh SW 3.5 mph5.6 kmh 29.76 in1007.8 mb 0.00 in0.0 mm 0.00 in0.0 mm 0.00 in0.0 mm
05:30 AM 68.5°F20.3°C 57.9°F14.4°C 69% 3.2 mph SW5.1 kmh SW 3.5 mph5.6 kmh 29.76 in1007.8 mb 0.00 in0.0 mm 0.00 in0.0 mm 0.00 in0.0 mm
05:25 AM 67.8°F19.9°C 57.7°F14.3°C 70% 2.8 mph SW4.5 kmh SW 4.6 mph7.4 kmh 29.76 in1007.8 mb 0.00 in0.0 mm 0.00 in0.0 mm 0.00 in0.0 mm
05:20 AM 68.3°F20.2°C 57.8°F14.3°C 70% 2.1 mph SW3.4 kmh SW 4.6 mph7.4 kmh 29.76 in1007.8 mb 0.00 in0.0 mm 0.00 in0.0 mm 0.00 in0.0 mm
05:15 AM 68.3°F20.2°C 57.8°F14.3°C 69% 4.6 mph SW7.4 kmh SW 4.6 mph7.4 kmh 29.76 in1007.8 mb 0.00 in0.0 mm 0.00 in0.0 mm 0.00 in0.0 mm
05:10 AM 68.0°F20.0°C 57.9°F14.4°C 70% 1.5 mph S2.4 kmh S 2.9 mph4.7 kmh 29.76 in1007.8 mb 0.00 in0.0 mm 0.00 in0.0 mm 0.00 in0.0 mm
05:05 AM 68.0°F20.0°C 57.9°F14.4°C 70% 2.2 mph SSW3.5 kmh SSW 4.6 mph7.4 kmh 29.76 in1007.8 mb 0.00 in0.0 mm 0.00 in0.0 mm 0.00 in0.0 mm
04:59 AM 68.5°F20.3°C 57.9°F14.4°C 69% 3.0 mph S4.8 kmh S 6.2 mph10.0 kmh 29.76 in1007.8 mb 0.00 in0.0 mm 0.00 in0.0 mm 0.00 in0.0 mm
04:55 AM 68.7°F20.4°C 57.7°F14.3°C 68% 4.6 mph SW7.4 kmh SW 6.2 mph10.0 kmh 29.76 in1007.8 mb 0.00 in0.0 mm 0.00 in0.0 mm 0.00 in0.0 mm
04:50 AM 68.1°F20.1°C 57.6°F14.2°C 69% 4.5 mph SW7.2 kmh SW 6.2 mph10.0 kmh 29.76 in1007.8 mb 0.00 in0.0 mm 0.00 in0.0 mm 0.00 in0.0 mm
04:45 AM 67.8°F19.9°C 57.7°F14.3°C 70% 4.3 mph S6.9 kmh S 4.4 mph7.1 kmh 29.76 in1007.8 mb 0.00 in0.0 mm 0.00 in0.0 mm 0.00 in0.0 mm
04:40 AM 68.1°F20.1°C 57.6°F14.2°C 69% 3.0 mph SW4.8 kmh SW 4.4 mph7.1 kmh 29.77 in1008.1 mb 0.00 in0.0 mm 0.00 in0.0 mm 0.00 in0.0 mm
04:35 AM 68.5°F20.3°C 57.9°F14.4°C 69% 1.6 mph SSW2.6 kmh SSW 5.3 mph8.5 kmh 29.76 in1007.8 mb 0.00 in0.0 mm 0.00 in0.0 mm 0.00 in0.0 mm
04:30 AM 68.9°F20.5°C 57.8°F14.3°C 68% 3.5 mph SSW5.6 kmh SSW 5.3 mph8.5 kmh 29.76 in1007.8 mb 0.00 in0.0 mm 0.00 in0.0 mm 0.00 in0.0 mm
04:25 AM 69.0°F20.6°C 57.6°F14.2°C 67% 4.9 mph SW7.9 kmh SW 5.3 mph8.5 kmh 29.76 in1007.8 mb 0.00 in0.0 mm 0.00 in0.0 mm 0.00 in0.0 mm
04:20 AM 69.4°F20.8°C 57.5°F14.2°C 66% 2.8 mph SSW4.5 kmh SSW 6.2 mph10.0 kmh 29.76 in1007.8 mb 0.00 in0.0 mm 0.00 in0.0 mm 0.00 in0.0 mm
04:15 AM 69.9°F21.1°C 57.6°F14.2°C 65% 4.5 mph SW7.2 kmh SW 6.2 mph10.0 kmh 29.76 in1007.8 mb 0.00 in0.0 mm 0.00 in0.0 mm 0.00 in0.0 mm
04:10 AM 70.5°F21.4°C 57.7°F14.3°C 64% 3.8 mph S6.1 kmh S 5.5 mph8.9 kmh 29.76 in1007.8 mb 0.00 in0.0 mm 0.00 in0.0 mm 0.00 in0.0 mm
04:05 AM 70.5°F21.4°C 57.7°F14.3°C 64% 4.3 mph SSW6.9 kmh SSW 5.5 mph8.9 kmh 29.76 in1007.8 mb 0.00 in0.0 mm 0.00 in0.0 mm 0.00 in0.0 mm
04:00 AM 70.7°F21.5°C 57.9°F14.4°C 64% 4.6 mph SW7.4 kmh SW 5.5 mph8.9 kmh 29.76 in1007.8 mb 0.00 in0.0 mm 0.00 in0.0 mm 0.00 in0.0 mm
03:55 AM 71.2°F21.8°C 57.5°F14.2°C 63% 2.9 mph SW4.7 kmh SW 7.6 mph12.2 kmh 29.77 in1008.1 mb 0.00 in0.0 mm 0.00 in0.0 mm 0.00 in0.0 mm
03:49 AM 71.4°F21.9°C 57.7°F14.3°C 62% 5.4 mph SW8.7 kmh SW 7.6 mph12.2 kmh 29.76 in1007.8 mb 0.00 in0.0 mm 0.00 in0.0 mm 0.00 in0.0 mm
03:45 AM 71.4°F21.9°C 57.7°F14.3°C 62% 3.6 mph SW5.8 kmh SW 7.3 mph11.7 kmh 29.76 in1007.8 mb 0.00 in0.0 mm 0.00 in0.0 mm 0.00 in0.0 mm
03:39 AM 71.2°F21.8°C 57.9°F14.4°C 63% 6.2 mph SW10.0 kmh SW 7.3 mph11.7 kmh 29.76 in1007.8 mb 0.00 in0.0 mm 0.00 in0.0 mm 0.00 in0.0 mm
03:35 AM 70.8°F21.6°C 58.0°F14.4°C 64% 3.5 mph WSW5.6 kmh WSW 6.2 mph10.0 kmh 29.76 in1007.8 mb 0.00 in0.0 mm 0.00 in0.0 mm 0.00 in0.0 mm
03:30 AM 70.8°F21.6°C 58.0°F14.4°C 64% 3.8 mph SW6.1 kmh SW 6.2 mph10.0 kmh 29.76 in1007.8 mb 0.00 in0.0 mm 0.00 in0.0 mm 0.00 in0.0 mm
03:25 AM 71.2°F21.8°C 57.9°F14.4°C 63% 5.1 mph WSW8.2 kmh WSW 6.4 mph10.3 kmh 29.76 in1007.8 mb 0.00 in0.0 mm 0.00 in0.0 mm 0.00 in0.0 mm
03:20 AM 71.6°F22.0°C 57.8°F14.3°C 62% 4.0 mph SW6.4 kmh SW 8.2 mph13.2 kmh 29.76 in1007.8 mb 0.00 in0.0 mm 0.00 in0.0 mm 0.00 in0.0 mm
03:14 AM 71.7°F22.1°C 58.0°F14.4°C 62% 4.8 mph SW7.7 kmh SW 8.2 mph13.2 kmh 29.76 in1007.8 mb 0.00 in0.0 mm 0.00 in0.0 mm 0.00 in0.0 mm
03:09 AM 72.1°F22.3°C 58.3°F14.6°C 62% 3.8 mph SSW6.1 kmh SSW 8.2 mph13.2 kmh 29.76 in1007.8 mb 0.00 in0.0 mm 0.00 in0.0 mm 0.00 in0.0 mm
03:04 AM 71.9°F22.2°C 58.2°F14.6°C 62% 6.1 mph SW9.8 kmh SW 8.2 mph13.2 kmh 29.76 in1007.8 mb 0.00 in0.0 mm 0.00 in0.0 mm 0.00 in0.0 mm
03:00 AM 71.2°F21.8°C 58.4°F14.7°C 64% 3.7 mph SW6.0 kmh SW 6.0 mph9.7 kmh 29.76 in1007.8 mb 0.00 in0.0 mm 0.00 in0.0 mm 0.00 in0.0 mm
02:54 AM 70.7°F21.5°C 58.3°F14.6°C 65% 5.0 mph SSW8.0 kmh SSW 6.0 mph9.7 kmh 29.76 in1007.8 mb 0.00 in0.0 mm 0.00 in0.0 mm 0.00 in0.0 mm
02:49 AM 70.5°F21.4°C 58.5°F14.7°C 66% 4.9 mph SSW7.9 kmh SSW 6.2 mph10.0 kmh 29.76 in1007.8 mb 0.00 in0.0 mm 0.00 in0.0 mm 0.00 in0.0 mm
02:44 AM 70.3°F21.3°C 58.4°F14.7°C 66% 4.6 mph SSW7.4 kmh SSW 6.2 mph10.0 kmh 29.76 in1007.8 mb 0.00 in0.0 mm 0.00 in0.0 mm 0.00 in0.0 mm
02:39 AM 70.5°F21.4°C 58.5°F14.7°C 65% 4.9 mph SW7.9 kmh SW 6.0 mph9.7 kmh 29.76 in1007.8 mb 0.00 in0.0 mm 0.00 in0.0 mm 0.00 in0.0 mm
02:34 AM 70.5°F21.4°C 58.5°F14.7°C 66% 3.1 mph SSW5.0 kmh SSW 6.0 mph9.7 kmh 29.76 in1007.8 mb 0.00 in0.0 mm 0.00 in0.0 mm 0.00 in0.0 mm
02:29 AM 70.5°F21.4°C 58.1°F14.5°C 65% 4.8 mph SW7.7 kmh SW 6.0 mph9.7 kmh 29.76 in1007.8 mb 0.00 in0.0 mm 0.00 in0.0 mm 0.00 in0.0 mm
02:24 AM 71.0°F21.7°C 58.2°F14.6°C 64% 4.0 mph SW6.4 kmh SW 6.0 mph9.7 kmh 29.76 in1007.8 mb 0.00 in0.0 mm 0.00 in0.0 mm 0.00 in0.0 mm
02:19 AM 70.7°F21.5°C 58.3°F14.6°C 65% 5.0 mph SSW8.0 kmh SSW 5.3 mph8.5 kmh 29.76 in1007.8 mb 0.00 in0.0 mm 0.00 in0.0 mm 0.00 in0.0 mm
02:14 AM 70.1°F21.2°C 58.2°F14.6°C 66% 3.2 mph SSW5.1 kmh SSW 3.3 mph5.3 kmh 29.77 in1008.1 mb 0.00 in0.0 mm 0.00 in0.0 mm 0.00 in0.0 mm
02:09 AM 70.8°F21.6°C 57.6°F14.2°C 63% 1.8 mph SW2.9 kmh SW 3.3 mph5.3 kmh 29.76 in1007.8 mb 0.00 in0.0 mm 0.00 in0.0 mm 0.00 in0.0 mm
02:03 AM 72.3°F22.4°C 57.6°F14.2°C 60% 0.9 mph SW1.4 kmh SW 7.1 mph11.4 kmh 29.76 in1007.8 mb 0.00 in0.0 mm 0.00 in0.0 mm 0.00 in0.0 mm
01:58 AM 73.0°F22.8°C 57.3°F14.1°C 58% 5.4 mph SW8.7 kmh SW 7.1 mph11.4 kmh 29.76 in1007.8 mb 0.00 in0.0 mm 0.00 in0.0 mm 0.00 in0.0 mm
01:53 AM 73.2°F22.9°C 57.9°F14.4°C 59% 4.2 mph SW6.8 kmh SW 5.5 mph8.9 kmh 29.76 in1007.8 mb 0.00 in0.0 mm 0.00 in0.0 mm 0.00 in0.0 mm
01:48 AM 72.6°F22.6°C 57.9°F14.4°C 60% 4.0 mph WSW6.4 kmh WSW 5.3 mph8.5 kmh 29.76 in1007.8 mb 0.00 in0.0 mm 0.00 in0.0 mm 0.00 in0.0 mm
01:43 AM 72.5°F22.5°C 58.2°F14.6°C 61% 5.1 mph SW8.2 kmh SW 5.3 mph8.5 kmh 29.76 in1007.8 mb 0.00 in0.0 mm 0.00 in0.0 mm 0.00 in0.0 mm
01:38 AM 73.2°F22.9°C 57.9°F14.4°C 59% 2.6 mph WSW4.2 kmh WSW 3.5 mph5.6 kmh 29.76 in1007.8 mb 0.00 in0.0 mm 0.00 in0.0 mm 0.00 in0.0 mm
01:33 AM 73.5°F23.1°C 58.3°F14.6°C 59% 2.4 mph SSW3.9 kmh SSW 4.4 mph7.1 kmh 29.76 in1007.8 mb 0.00 in0.0 mm 0.00 in0.0 mm 0.00 in0.0 mm
01:28 AM 73.9°F23.3°C 58.1°F14.5°C 58% 2.6 mph WSW4.2 kmh WSW 4.6 mph7.4 kmh 29.77 in1008.1 mb 0.00 in0.0 mm 0.00 in0.0 mm 0.00 in0.0 mm
01:23 AM 73.9°F23.3°C 58.1°F14.5°C 58% 3.9 mph SSW6.3 kmh SSW 6.0 mph9.7 kmh 29.77 in1008.1 mb 0.00 in0.0 mm 0.00 in0.0 mm 0.00 in0.0 mm
01:18 AM 73.9°F23.3°C 58.1°F14.5°C 58% 5.9 mph SSW9.5 kmh SSW 6.0 mph9.7 kmh 29.77 in1008.1 mb 0.00 in0.0 mm 0.00 in0.0 mm 0.00 in0.0 mm
01:13 AM 74.8°F23.8°C 58.0°F14.4°C 57% 3.5 mph SW5.6 kmh SW 3.5 mph5.6 kmh 29.77 in1008.1 mb 0.00 in0.0 mm 0.00 in0.0 mm 0.00 in0.0 mm
01:08 AM 74.8°F23.8°C 58.0°F14.4°C 56% 2.5 mph SSW4.0 kmh SSW 4.4 mph7.1 kmh 29.77 in1008.1 mb 0.00 in0.0 mm 0.00 in0.0 mm 0.00 in0.0 mm
01:03 AM 75.0°F23.9°C 58.2°F14.6°C 56% 4.4 mph SSW7.1 kmh SSW 4.4 mph7.1 kmh 29.77 in1008.1 mb 0.00 in0.0 mm 0.00 in0.0 mm 0.00 in0.0 mm
12:58 AM 75.2°F24.0°C 58.4°F14.7°C 56% 3.7 mph SW6.0 kmh SW 4.2 mph6.8 kmh 29.77 in1008.1 mb 0.00 in0.0 mm 0.00 in0.0 mm 0.00 in0.0 mm
12:53 AM 75.3°F24.1°C 58.5°F14.7°C 56% 2.8 mph SW4.5 kmh SW 4.9 mph7.9 kmh 29.77 in1008.1 mb 0.00 in0.0 mm 0.00 in0.0 mm 0.00 in0.0 mm
12:48 AM 75.3°F24.1°C 58.5°F14.7°C 56% 4.1 mph SSW6.6 kmh SSW 7.3 mph11.7 kmh 29.77 in1008.1 mb 0.00 in0.0 mm 0.00 in0.0 mm 0.00 in0.0 mm
12:43 AM 75.7°F24.3°C 58.9°F14.9°C 56% 5.4 mph SW8.7 kmh SW 7.3 mph11.7 kmh 29.77 in1008.1 mb 0.00 in0.0 mm 0.00 in0.0 mm 0.00 in0.0 mm
12:38 AM 75.7°F24.3°C 58.9°F14.9°C 56% 3.0 mph S4.8 kmh S 6.2 mph10.0 kmh 29.77 in1008.1 mb 0.00 in0.0 mm 0.00 in0.0 mm 0.00 in0.0 mm
12:33 AM 75.9°F24.4°C 59.5°F15.3°C 57% 4.0 mph SSW6.4 kmh SSW 5.3 mph8.5 kmh 29.77 in1008.1 mb 0.00 in0.0 mm 0.00 in0.0 mm 0.00 in0.0 mm
12:28 AM 75.9°F24.4°C 59.5°F15.3°C 57% 4.0 mph SSW6.4 kmh SSW 5.3 mph8.5 kmh 29.77 in1008.1 mb 0.00 in0.0 mm 0.00 in0.0 mm 0.00 in0.0 mm
12:23 AM 75.9°F24.4°C 59.5°F15.3°C 57% 4.4 mph SSW7.1 kmh SSW 4.9 mph7.9 kmh 29.77 in1008.1 mb 0.00 in0.0 mm 0.00 in0.0 mm 0.00 in0.0 mm
12:18 AM 75.9°F24.4°C 59.5°F15.3°C 57% 4.5 mph SW7.2 kmh SW 6.4 mph10.3 kmh 29.77 in1008.1 mb 0.00 in0.0 mm 0.00 in0.0 mm 0.00 in0.0 mm
12:13 AM 75.9°F24.4°C 60.0°F15.6°C 58% 4.1 mph SSW6.6 kmh SSW 6.4 mph10.3 kmh 29.77 in1008.1 mb 0.00 in0.0 mm 0.00 in0.0 mm 0.00 in0.0 mm
12:08 AM 75.9°F24.4°C 59.5°F15.3°C 57% 4.6 mph SSW7.4 kmh SSW 6.2 mph10.0 kmh 29.76 in1007.8 mb 0.00 in0.0 mm 0.00 in0.0 mm 0.00 in0.0 mm
12:03 AM 75.9°F24.4°C 60.0°F15.6°C 58% 4.3 mph SW6.9 kmh SW 7.1 mph11.4 kmh 29.77 in1008.1 mb 0.00 in0.0 mm 0.00 in0.0 mm 0.00 in0.0 mm